Time;durP1;ratioP1;P1;durP2;ratioP2;P2;SDS_P1;SDS_P2;PMS_P1;PMS_P2;Temp;Humidity;BMP_temperature;BMP_pressure;BME280_temperature;BME280_humidity;BME280_pressure;Samples;Min_cycle;Max_cycle;Signal;HPM_P1;HPM_P2
2023/06/29 00:02:25;;;;;;;24.25;13.10;;;18.80;99.90;;;;;;4975107;28;20121;-38
2023/06/29 00:04:53;;;;;;;21.67;13.98;;;18.80;99.90;;;;;;4970042;28;20061;-38
2023/06/29 00:07:20;;;;;;;20.40;12.60;;;18.90;99.90;;;;;;4970276;28;20055;-38
2023/06/29 00:09:47;;;;;;;23.23;14.90;;;18.80;99.90;;;;;;4967924;28;20512;-38
2023/06/29 00:12:13;;;;;;;23.52;14.15;;;18.90;99.90;;;;;;4970163;28;20058;-39
2023/06/29 00:14:39;;;;;;;22.85;14.82;;;18.90;99.90;;;;;;4967043;28;21157;-38
2023/06/29 00:17:05;;;;;;;24.65;14.68;;;18.90;99.90;;;;;;4972337;28;20086;-39
2023/06/29 00:19:30;;;;;;;18.90;13.40;;;18.90;99.90;;;;;;4968647;28;20062;-38
2023/06/29 00:21:58;;;;;;;22.15;13.77;;;18.90;99.90;;;;;;4970223;28;20051;-39
2023/06/29 00:24:23;;;;;;;20.20;13.95;;;18.90;99.90;;;;;;4967650;28;20128;-38
2023/06/29 00:26:49;;;;;;;26.90;15.80;;;18.90;99.90;;;;;;4964881;28;20093;-38
2023/06/29 00:29:15;;;;;;;19.00;12.43;;;18.90;99.90;;;;;;4968939;28;20054;-38
2023/06/29 00:31:41;;;;;;;24.02;14.05;;;18.90;99.90;;;;;;4967709;28;20075;-38
2023/06/29 00:34:06;;;;;;;20.17;13.70;;;18.80;99.90;;;;;;4967322;28;20547;-38
2023/06/29 00:36:32;;;;;;;19.58;12.75;;;18.90;99.90;;;;;;4970709;28;20051;-39
2023/06/29 00:38:58;;;;;;;24.50;13.77;;;18.90;99.90;;;;;;4976682;28;20062;-38
2023/06/29 00:41:23;;;;;;;21.38;13.57;;;18.90;99.90;;;;;;4973191;28;20405;-38
2023/06/29 00:43:49;;;;;;;21.60;13.15;;;18.80;99.90;;;;;;4971892;28;20497;-38
2023/06/29 00:46:18;;;;;;;21.20;14.50;;;18.80;99.90;;;;;;4972661;28;20502;-38
2023/06/29 00:48:44;;;;;;;24.08;12.10;;;18.80;99.90;;;;;;4973444;28;20517;-38
2023/06/29 00:51:11;;;;;;;22.27;13.40;;;18.80;99.90;;;;;;4968851;28;20061;-38
2023/06/29 00:53:37;;;;;;;20.50;13.23;;;18.80;99.90;;;;;;4966033;28;20397;-38
2023/06/29 00:56:03;;;;;;;20.38;13.98;;;18.80;99.90;;;;;;4967346;28;20047;-39
2023/06/29 00:58:29;;;;;;;22.98;14.07;;;18.80;99.90;;;;;;4968295;28;20101;-38
2023/06/29 01:00:55;;;;;;;19.23;12.85;;;18.80;99.90;;;;;;4968000;28;20444;-38
2023/06/29 01:03:22;;;;;;;18.52;13.13;;;18.80;99.90;;;;;;4968440;28;20137;-39
2023/06/29 01:05:53;;;;;;;20.85;12.52;;;18.80;99.90;;;;;;4968082;28;20076;-38
2023/06/29 01:08:29;;;;;;;20.20;13.63;;;18.80;99.90;;;;;;4965986;28;20058;-38
2023/06/29 01:10:56;;;;;;;20.85;13.77;;;18.80;99.90;;;;;;4965575;28;20058;-38
2023/06/29 01:13:23;;;;;;;21.15;14.15;;;18.80;99.90;;;;;;4967098;28;20051;-38
2023/06/29 01:15:50;;;;;;;21.17;12.88;;;18.80;99.90;;;;;;4968990;28;20058;-38
2023/06/29 01:18:17;;;;;;;20.42;13.52;;;18.80;99.90;;;;;;4967865;28;20047;-38
2023/06/29 01:20:45;;;;;;;19.45;12.75;;;18.80;99.90;;;;;;4950491;28;20058;-38
2023/06/29 01:23:21;;;;;;;22.67;13.40;;;18.80;99.90;;;;;;4967011;28;20058;-38
2023/06/29 01:25:46;;;;;;;22.48;13.50;;;18.80;99.90;;;;;;4967439;28;20063;-38
2023/06/29 01:28:13;;;;;;;17.55;12.20;;;18.80;99.90;;;;;;4967057;28;20054;-38
2023/06/29 01:30:48;;;;;;;19.15;12.07;;;18.80;99.90;;;;;;4967465;28;20054;-38
2023/06/29 01:33:17;;;;;;;22.02;12.75;;;18.80;99.90;;;;;;4968742;28;20059;-37
2023/06/29 01:35:44;;;;;;;21.70;13.20;;;18.80;99.90;;;;;;4968820;28;20065;-38
2023/06/29 01:38:36;;;;;;;18.95;12.32;;;18.80;99.90;;;;;;4969362;28;20540;-38
2023/06/29 01:41:04;;;;;;;22.08;13.88;;;18.80;99.90;;;;;;4968882;28;20508;-38
2023/06/29 01:43:30;;;;;;;23.02;14.40;;;18.70;99.90;;;;;;4957263;28;20074;-38
2023/06/29 01:45:57;;;;;;;19.38;11.95;;;18.70;99.90;;;;;;4966257;28;20066;-39
2023/06/29 01:48:23;;;;;;;21.95;14.77;;;18.70;99.90;;;;;;4967101;28;20047;-37
2023/06/29 01:50:49;;;;;;;19.15;12.60;;;18.70;99.90;;;;;;4949748;28;20493;-37
2023/06/29 01:53:15;;;;;;;21.95;14.00;;;18.70;99.90;;;;;;4968906;28;20046;-36
2023/06/29 01:55:40;;;;;;;26.98;16.15;;;18.60;99.90;;;;;;4959604;28;20051;-38
2023/06/29 01:58:06;;;;;;;23.38;13.95;;;18.60;99.90;;;;;;4969570;28;20421;-37
2023/06/29 02:00:32;;;;;;;19.05;11.55;;;18.60;99.90;;;;;;4967709;28;20054;-38
2023/06/29 02:02:57;;;;;;;20.92;13.40;;;18.60;99.90;;;;;;4967880;28;20086;-37
2023/06/29 02:05:23;;;;;;;26.67;15.05;;;18.60;99.90;;;;;;4968101;28;20046;-37
2023/06/29 02:07:49;;;;;;;26.23;13.68;;;18.60;99.90;;;;;;4966428;28;20074;-37
2023/06/29 02:10:15;;;;;;;24.42;16.73;;;18.60;99.90;;;;;;4968876;28;20511;-37
2023/06/29 02:12:41;;;;;;;23.90;14.63;;;18.60;99.90;;;;;;4965408;28;20058;-37
2023/06/29 02:15:07;;;;;;;24.25;14.75;;;18.50;99.90;;;;;;4968894;28;20051;-37
2023/06/29 02:17:32;;;;;;;24.20;15.77;;;18.50;99.90;;;;;;4968922;28;20054;-37
2023/06/29 02:19:58;;;;;;;23.60;14.73;;;18.50;99.90;;;;;;4966514;28;20077;-37
2023/06/29 02:22:24;;;;;;;22.00;13.98;;;18.50;99.90;;;;;;4970194;28;20139;-37
2023/06/29 02:24:49;;;;;;;20.38;13.57;;;18.50;99.90;;;;;;4966267;28;20057;-37
2023/06/29 02:27:15;;;;;;;25.67;15.57;;;18.50;99.90;;;;;;4968566;28;20413;-37
2023/06/29 02:29:41;;;;;;;21.67;13.30;;;18.50;99.90;;;;;;4967394;28;20057;-37
2023/06/29 02:32:07;;;;;;;25.75;14.35;;;18.50;99.90;;;;;;4972011;28;20058;-37
2023/06/29 02:34:32;;;;;;;21.25;13.93;;;18.50;99.90;;;;;;4965040;28;20445;-38
2023/06/29 02:36:58;;;;;;;21.55;12.95;;;18.50;99.90;;;;;;4966603;28;20186;-38
2023/06/29 02:39:23;;;;;;;23.40;14.10;;;18.50;99.90;;;;;;4970595;28;20401;-38
2023/06/29 02:41:49;;;;;;;19.92;11.68;;;18.50;99.90;;;;;;4967589;28;20413;-38
2023/06/29 02:44:15;;;;;;;18.27;12.32;;;18.50;99.90;;;;;;4966028;28;20501;-38
2023/06/29 02:46:40;;;;;;;20.08;11.63;;;18.50;99.90;;;;;;4967653;28;20082;-39
2023/06/29 02:49:06;;;;;;;19.35;11.13;;;18.60;99.90;;;;;;4965932;28;20102;-38
2023/06/29 02:51:32;;;;;;;21.08;11.27;;;18.50;99.90;;;;;;4967830;28;20397;-38
2023/06/29 02:53:58;;;;;;;19.17;11.55;;;18.60;99.90;;;;;;4964259;28;20051;-38
2023/06/29 02:56:24;;;;;;;18.45;10.52;;;18.60;99.90;;;;;;4969728;28;20559;-37
2023/06/29 02:58:49;;;;;;;19.17;11.05;;;18.60;99.90;;;;;;4969642;28;20077;-37
2023/06/29 03:01:15;;;;;;;16.77;10.93;;;18.60;99.90;;;;;;4971432;28;20062;-38
2023/06/29 03:03:41;;;;;;;19.50;11.30;;;18.60;99.90;;;;;;4970470;28;20043;-37
2023/06/29 03:06:06;;;;;;;19.38;11.68;;;18.60;99.90;;;;;;4977132;28;20055;-37
2023/06/29 03:08:32;;;;;;;18.08;10.63;;;18.60;99.90;;;;;;4975718;28;20057;-37
2023/06/29 03:10:58;;;;;;;13.23;9.20;;;18.60;99.90;;;;;;4972865;28;20488;-37
2023/06/29 03:13:23;;;;;;;17.70;11.57;;;18.60;99.90;;;;;;4968687;28;20121;-38
2023/06/29 03:15:50;;;;;;;17.08;11.38;;;18.60;99.90;;;;;;4960805;28;20042;-39
2023/06/29 03:18:16;;;;;;;23.20;12.90;;;18.60;99.90;;;;;;4973413;28;20061;-38
2023/06/29 03:20:42;;;;;;;20.80;11.00;;;18.60;99.90;;;;;;4969904;28;20141;-38
2023/06/29 03:23:08;;;;;;;17.88;11.52;;;18.60;99.90;;;;;;4978585;28;20133;-38
2023/06/29 03:25:33;;;;;;;17.65;11.45;;;18.60;99.90;;;;;;4970272;28;20047;-38
2023/06/29 03:27:59;;;;;;;20.33;12.07;;;18.60;99.90;;;;;;4970136;28;20066;-39
2023/06/29 03:30:24;;;;;;;19.13;11.88;;;18.60;99.90;;;;;;4969663;28;20140;-37
2023/06/29 03:32:50;;;;;;;19.70;11.32;;;18.60;99.90;;;;;;4970815;28;20082;-38
2023/06/29 03:35:16;;;;;;;19.30;11.60;;;18.60;99.90;;;;;;4969974;28;20141;-38
2023/06/29 03:37:41;;;;;;;18.77;12.20;;;18.60;99.90;;;;;;4971883;28;20055;-38
2023/06/29 03:40:08;;;;;;;20.50;12.60;;;18.60;99.90;;;;;;4972463;28;20055;-38
2023/06/29 03:42:33;;;;;;;20.98;12.45;;;18.60;99.90;;;;;;4971733;28;20156;-38
2023/06/29 03:44:59;;;;;;;21.73;13.90;;;18.60;99.90;;;;;;4975704;28;20046;-37
2023/06/29 03:47:25;;;;;;;20.27;13.48;;;18.70;99.90;;;;;;4969736;28;20058;-37
2023/06/29 03:49:50;;;;;;;17.63;11.90;;;18.60;99.90;;;;;;4970243;28;20050;-37
2023/06/29 03:52:16;;;;;;;19.33;12.30;;;18.60;99.90;;;;;;4975229;28;20057;-38
2023/06/29 03:54:42;;;;;;;18.98;11.93;;;18.70;99.90;;;;;;4950998;28;20090;-38
2023/06/29 03:57:07;;;;;;;21.85;13.25;;;18.70;99.90;;;;;;4971796;28;20400;-38
2023/06/29 03:59:33;;;;;;;20.00;12.38;;;18.70;99.90;;;;;;4971075;28;20069;-38
2023/06/29 04:01:59;;;;;;;19.83;12.48;;;18.80;99.90;;;;;;4966732;28;20085;-39
2023/06/29 04:04:24;;;;;;;18.55;12.18;;;18.70;99.90;;;;;;4951349;28;20061;-38
2023/06/29 04:06:50;;;;;;;20.63;11.77;;;18.80;99.90;;;;;;4975555;28;20059;-37
2023/06/29 04:09:16;;;;;;;20.30;12.77;;;18.80;99.90;;;;;;4970217;28;20133;-38
2023/06/29 04:11:41;;;;;;;17.35;11.55;;;18.80;99.90;;;;;;4986091;28;20424;-38
2023/06/29 04:14:07;;;;;;;18.90;11.77;;;18.80;99.90;;;;;;4965721;28;20400;-38
2023/06/29 04:16:33;;;;;;;20.65;11.70;;;18.80;99.90;;;;;;4972405;28;20416;-38
2023/06/29 04:18:58;;;;;;;16.83;11.18;;;18.80;99.90;;;;;;4972119;28;20043;-38
2023/06/29 04:21:24;;;;;;;23.05;14.07;;;18.80;99.90;;;;;;4959767;28;20098;-38
2023/06/29 04:23:50;;;;;;;21.45;11.32;;;18.80;99.90;;;;;;4969900;28;20540;-38
2023/06/29 04:26:16;;;;;;;19.60;12.40;;;18.90;99.90;;;;;;4954321;28;20409;-36
2023/06/29 04:28:44;;;;;;;22.23;12.60;;;18.90;99.90;;;;;;4974257;28;20416;-36
2023/06/29 04:31:11;;;;;;;21.50;12.45;;;18.90;99.90;;;;;;4967652;28;20050;-37
2023/06/29 04:33:37;;;;;;;20.38;12.80;;;19.00;99.90;;;;;;4970554;28;20413;-38
2023/06/29 04:36:03;;;;;;;24.35;13.13;;;19.00;99.90;;;;;;4967402;28;20054;-37
2023/06/29 04:38:29;;;;;;;21.27;13.32;;;19.00;99.90;;;;;;4970432;28;20066;-37
2023/06/29 04:41:04;;;;;;;17.70;11.40;;;19.00;99.90;;;;;;4968171;28;20221;-37
2023/06/29 04:43:33;;;;;;;19.58;12.85;;;19.00;99.90;;;;;;4968480;28;20386;-38
2023/06/29 04:46:00;;;;;;;16.88;11.48;;;19.00;99.90;;;;;;4969729;28;20191;-38
2023/06/29 04:48:32;;;;;;;21.40;13.68;;;19.00;99.90;;;;;;4969997;28;20058;-38
2023/06/29 04:51:04;;;;;;;16.90;11.65;;;19.00;99.90;;;;;;4968049;28;20171;-39
2023/06/29 04:53:34;;;;;;;21.35;13.98;;;19.00;99.90;;;;;;4967338;28;20134;-38
2023/06/29 04:56:04;;;;;;;22.55;14.25;;;19.10;99.90;;;;;;4971447;28;20054;-37
2023/06/29 04:58:30;;;;;;;19.15;12.25;;;19.10;99.90;;;;;;4968441;28;20046;-38
2023/06/29 05:00:56;;;;;;;21.80;13.68;;;19.10;99.90;;;;;;4973523;28;20076;-38
2023/06/29 05:03:22;;;;;;;19.88;12.73;;;19.10;99.90;;;;;;4966473;28;20058;-38
2023/06/29 05:05:48;;;;;;;20.42;12.65;;;19.10;99.90;;;;;;4971646;28;20059;-37
2023/06/29 05:08:13;;;;;;;20.25;12.60;;;19.10;99.90;;;;;;4971380;28;20058;-37
2023/06/29 05:10:39;;;;;;;20.20;12.45;;;19.10;99.90;;;;;;4968959;28;20125;-37
2023/06/29 05:13:05;;;;;;;18.50;12.38;;;19.10;99.90;;;;;;4967437;28;20054;-37
2023/06/29 05:15:31;;;;;;;20.42;12.02;;;19.10;99.90;;;;;;4969148;28;20054;-37
2023/06/29 05:17:56;;;;;;;23.55;14.45;;;19.10;99.90;;;;;;4968091;28;20494;-37
2023/06/29 05:20:22;;;;;;;22.27;13.48;;;19.10;99.90;;;;;;4967462;28;20047;-37
2023/06/29 05:22:48;;;;;;;22.80;12.20;;;19.10;99.90;;;;;;4969197;28;20047;-37
2023/06/29 05:25:14;;;;;;;24.33;14.05;;;19.10;99.90;;;;;;4966196;28;20047;-38
2023/06/29 05:27:41;;;;;;;20.20;12.20;;;19.10;99.90;;;;;;4968468;28;20497;-36
2023/06/29 05:30:08;;;;;;;21.75;11.65;;;19.10;99.90;;;;;;4947432;28;20046;-36
2023/06/29 05:32:35;;;;;;;24.58;13.35;;;19.10;99.90;;;;;;4970183;28;20560;-37
2023/06/29 05:35:01;;;;;;;18.70;11.52;;;19.20;99.90;;;;;;4967198;28;20066;-36
2023/06/29 05:37:27;;;;;;;20.45;13.00;;;19.20;99.90;;;;;;4968020;28;20405;-37
2023/06/29 05:39:55;;;;;;;15.35;10.98;;;19.20;99.90;;;;;;4969385;28;20050;-39
2023/06/29 05:42:21;;;;;;;21.23;12.60;;;19.20;99.90;;;;;;4969290;28;20042;-38
2023/06/29 05:44:46;;;;;;;21.77;12.77;;;19.20;99.90;;;;;;4972215;28;20604;-37
2023/06/29 05:47:12;;;;;;;20.48;12.23;;;19.20;99.90;;;;;;4969538;28;20065;-37
2023/06/29 05:49:38;;;;;;;19.80;12.55;;;19.30;99.90;;;;;;4959473;28;20054;-38
2023/06/29 05:52:03;;;;;;;24.70;14.35;;;19.30;99.90;;;;;;4969558;28;20138;-38
2023/06/29 05:54:29;;;;;;;21.58;13.73;;;19.30;99.90;;;;;;4968056;28;20055;-37
2023/06/29 05:56:55;;;;;;;25.65;13.35;;;19.30;99.90;;;;;;4964496;28;20093;-37
2023/06/29 05:59:20;;;;;;;22.50;13.93;;;19.30;99.90;;;;;;4971047;28;20054;-37
2023/06/29 06:01:46;;;;;;;23.25;14.50;;;19.30;99.90;;;;;;4964797;28;20130;-37
2023/06/29 06:04:11;;;;;;;20.13;13.25;;;19.30;99.90;;;;;;4965371;28;20150;-38
2023/06/29 06:06:39;;;;;;;25.15;15.68;;;19.30;99.90;;;;;;4969137;28;20153;-37
2023/06/29 06:09:05;;;;;;;24.83;14.15;;;19.30;99.90;;;;;;4973587;28;20054;-38
2023/06/29 06:11:31;;;;;;;18.70;12.27;;;19.30;99.90;;;;;;4964785;28;20078;-39
2023/06/29 06:13:56;;;;;;;20.10;12.88;;;19.30;99.90;;;;;;4965398;28;20456;-38
2023/06/29 06:16:22;;;;;;;20.05;13.48;;;19.40;99.90;;;;;;4965085;28;20078;-38
2023/06/29 06:18:48;;;;;;;25.70;14.43;;;19.40;99.90;;;;;;4952306;28;20125;-37
2023/06/29 06:21:13;;;;;;;22.13;14.90;;;19.30;99.90;;;;;;4962695;28;20470;-37
2023/06/29 06:23:40;;;;;;;23.10;15.10;;;19.40;99.90;;;;;;4964696;28;20081;-37
2023/06/29 06:26:06;;;;;;;23.92;13.73;;;19.40;99.90;;;;;;4969579;28;20062;-37
2023/06/29 06:28:31;;;;;;;20.05;13.23;;;19.40;99.90;;;;;;4968048;28;20405;-38
2023/06/29 06:30:57;;;;;;;21.40;12.82;;;19.40;99.90;;;;;;4970866;28;20097;-39
2023/06/29 06:33:22;;;;;;;27.92;13.48;;;19.50;99.90;;;;;;4965492;28;20055;-36
2023/06/29 06:35:49;;;;;;;22.58;13.10;;;19.50;99.90;;;;;;4971716;28;20074;-38
2023/06/29 06:38:14;;;;;;;23.90;13.95;;;19.50;99.90;;;;;;4972631;28;20145;-41
2023/06/29 06:40:40;;;;;;;21.60;14.30;;;19.60;99.90;;;;;;4972186;28;20139;-38
2023/06/29 06:43:06;;;;;;;20.17;11.55;;;19.60;99.90;;;;;;4971155;28;20047;-38
2023/06/29 06:45:31;;;;;;;22.75;13.80;;;19.60;99.90;;;;;;4970198;28;20047;-37
2023/06/29 06:47:57;;;;;;;20.20;12.40;;;19.60;99.90;;;;;;4972165;28;20078;-39
2023/06/29 06:50:23;;;;;;;20.45;12.18;;;19.60;99.90;;;;;;4971670;28;20476;-38
2023/06/29 06:52:48;;;;;;;24.27;13.82;;;19.70;99.90;;;;;;4965360;28;20050;-38
2023/06/29 06:55:14;;;;;;;18.98;12.45;;;19.70;99.90;;;;;;4948807;28;20049;-38
2023/06/29 06:57:40;;;;;;;18.10;11.80;;;19.80;99.90;;;;;;4964782;28;20054;-37
2023/06/29 07:00:10;;;;;;;23.88;14.45;;;19.90;99.90;;;;;;4964421;28;20054;-37
2023/06/29 07:02:37;;;;;;;24.33;13.93;;;19.90;99.90;;;;;;4967616;28;20176;-37
2023/06/29 07:05:03;;;;;;;20.55;13.48;;;20.00;99.90;;;;;;4971087;28;20059;-37
2023/06/29 07:07:29;;;;;;;20.52;12.93;;;20.00;99.90;;;;;;4968716;28;20055;-37
2023/06/29 07:09:54;;;;;;;25.92;14.88;;;20.00;99.90;;;;;;4970149;28;20105;-37
2023/06/29 07:12:20;;;;;;;21.85;13.73;;;20.00;99.90;;;;;;4970055;28;20117;-38
2023/06/29 07:14:46;;;;;;;22.38;13.77;;;20.00;99.90;;;;;;4979901;28;20050;-37
2023/06/29 07:17:11;;;;;;;23.42;14.57;;;20.00;99.90;;;;;;4976140;28;20058;-36
2023/06/29 07:19:37;;;;;;;25.77;16.83;;;20.10;99.90;;;;;;4973262;28;20405;-37
2023/06/29 07:22:03;;;;;;;23.48;13.95;;;20.10;99.90;;;;;;4972426;28;20055;-37
2023/06/29 07:24:29;;;;;;;25.83;15.02;;;20.10;99.90;;;;;;4972353;28;20141;-37
2023/06/29 07:26:54;;;;;;;26.83;15.68;;;20.10;99.90;;;;;;4978974;28;20089;-38
2023/06/29 07:29:20;;;;;;;25.38;15.05;;;20.10;99.90;;;;;;4971449;28;20117;-37
2023/06/29 07:31:46;;;;;;;23.60;14.48;;;20.10;99.90;;;;;;4973170;28;20061;-37
2023/06/29 07:34:11;;;;;;;24.35;15.15;;;20.20;99.90;;;;;;4971662;28;20702;-37
2023/06/29 07:36:39;;;;;;;26.40;14.45;;;20.30;99.90;;;;;;4970223;28;20405;-37
2023/06/29 07:39:04;;;;;;;24.25;13.18;;;20.30;99.90;;;;;;4970168;28;20061;-37
2023/06/29 07:41:31;;;;;;;22.55;14.30;;;20.40;99.90;;;;;;4944641;28;20284;-37
2023/06/29 07:43:57;;;;;;;24.50;14.20;;;20.50;99.90;;;;;;4969253;28;20501;-38
2023/06/29 07:46:23;;;;;;;23.33;13.93;;;20.60;99.90;;;;;;4971383;28;20085;-37
2023/06/29 07:48:50;;;;;;;22.55;14.00;;;20.60;99.90;;;;;;4966126;28;20058;-37
2023/06/29 07:51:16;;;;;;;23.95;14.25;;;20.70;99.90;;;;;;4969581;28;20053;-37
2023/06/29 07:53:42;;;;;;;21.70;13.70;;;20.70;99.90;;;;;;4970719;28;20134;-36
2023/06/29 07:56:08;;;;;;;22.63;14.60;;;20.70;99.90;;;;;;4972616;28;20063;-38
2023/06/29 07:58:35;;;;;;;25.70;14.98;;;20.80;99.90;;;;;;4970177;28;20182;-38
2023/06/29 08:01:01;;;;;;;25.38;15.55;;;20.80;99.90;;;;;;4976377;28;20398;-38
2023/06/29 08:03:27;;;;;;;24.20;15.48;;;20.80;99.90;;;;;;4969752;28;20055;-37
2023/06/29 08:05:53;;;;;;;21.92;13.68;;;20.80;99.90;;;;;;4972028;28;20560;-37
2023/06/29 08:08:20;;;;;;;28.13;14.27;;;20.90;99.90;;;;;;4971075;28;20055;-38
2023/06/29 08:10:47;;;;;;;21.92;13.07;;;20.80;99.90;;;;;;4967423;28;20058;-37
2023/06/29 08:13:13;;;;;;;19.23;12.10;;;20.80;99.90;;;;;;4967688;28;20097;-37
2023/06/29 08:15:38;;;;;;;26.60;14.63;;;20.80;99.90;;;;;;4973601;28;20055;-37
2023/06/29 08:18:04;;;;;;;21.45;13.25;;;20.70;99.90;;;;;;4972207;28;20496;-37
2023/06/29 08:20:30;;;;;;;20.60;11.95;;;20.60;99.90;;;;;;4978079;28;20460;-37
2023/06/29 08:22:56;;;;;;;19.27;11.77;;;20.60;99.90;;;;;;4969821;28;20216;-37
2023/06/29 08:25:22;;;;;;;18.63;11.45;;;20.50;99.90;;;;;;4977293;28;20140;-37
2023/06/29 08:27:49;;;;;;;19.58;11.95;;;20.50;99.90;;;;;;4952393;28;20043;-38
2023/06/29 08:30:15;;;;;;;24.60;13.27;;;20.50;99.90;;;;;;4970685;28;20055;-36
2023/06/29 08:32:42;;;;;;;21.13;12.90;;;20.50;99.90;;;;;;4968707;28;20050;-36
2023/06/29 08:35:08;;;;;;;20.88;12.32;;;20.50;99.90;;;;;;4974528;28;20485;-37
2023/06/29 08:37:33;;;;;;;22.80;13.38;;;20.50;99.90;;;;;;4974303;28;20051;-37
2023/06/29 08:39:59;;;;;;;20.40;12.32;;;20.60;99.90;;;;;;4968411;28;20438;-38
2023/06/29 08:42:25;;;;;;;23.23;12.57;;;20.60;99.90;;;;;;4977637;28;20137;-37
2023/06/29 08:44:51;;;;;;;22.70;13.18;;;20.60;99.90;;;;;;4974982;28;20050;-37
2023/06/29 08:47:16;;;;;;;24.60;12.93;;;20.60;99.90;;;;;;4968509;28;20137;-37
2023/06/29 08:49:43;;;;;;;22.73;12.70;;;20.50;99.90;;;;;;4971555;28;20133;-37
2023/06/29 08:52:18;;;;;;;22.00;12.65;;;20.50;99.90;;;;;;4969644;28;20054;-37
2023/06/29 08:54:45;;;;;;;19.17;11.77;;;20.50;99.90;;;;;;4966104;28;20057;-37
2023/06/29 08:57:10;;;;;;;21.33;12.60;;;20.50;99.90;;;;;;4976559;28;20063;-38
2023/06/29 08:59:40;;;;;;;21.08;11.38;;;20.50;99.90;;;;;;4975290;28;20390;-38
2023/06/29 09:02:06;;;;;;;20.35;12.07;;;20.50;99.90;;;;;;4968833;28;20046;-38
2023/06/29 09:04:32;;;;;;;20.98;12.55;;;20.60;99.90;;;;;;4967179;28;20473;-38
2023/06/29 09:06:57;;;;;;;17.95;10.68;;;20.60;99.90;;;;;;4976005;28;20066;-38
2023/06/29 09:09:24;;;;;;;21.48;12.05;;;20.60;99.90;;;;;;4970645;28;20055;-38
2023/06/29 09:11:50;;;;;;;23.50;14.00;;;20.70;99.90;;;;;;4969568;28;20055;-37
2023/06/29 09:14:16;;;;;;;20.77;11.73;;;20.70;99.90;;;;;;4970747;28;20559;-37
2023/06/29 09:16:58;;;;;;;32.33;14.85;;;20.80;99.90;;;;;;4975377;28;20054;-38
2023/06/29 09:19:25;;;;;;;21.08;12.32;;;20.90;99.90;;;;;;4969452;28;20054;-38
2023/06/29 09:21:51;;;;;;;23.27;13.07;;;21.10;99.90;;;;;;4963072;28;20053;-38
2023/06/29 09:24:17;;;;;;;22.23;13.60;;;21.10;99.90;;;;;;4972458;28;20047;-38
2023/06/29 09:26:47;;;;;;;20.52;12.25;;;21.20;99.90;;;;;;4972850;28;20062;-38
2023/06/29 09:29:13;;;;;;;20.35;11.68;;;21.20;99.90;;;;;;4967144;28;20055;-38
2023/06/29 09:31:39;;;;;;;20.10;12.65;;;21.10;99.90;;;;;;4967818;28;20131;-38
2023/06/29 09:34:21;;;;;;;21.10;13.70;;;21.10;99.90;;;;;;4965134;28;20066;-37
2023/06/29 09:36:49;;;;;;;21.63;11.77;;;21.10;99.90;;;;;;4967969;28;20057;-44
2023/06/29 09:39:16;;;;;;;22.08;12.10;;;21.10;99.90;;;;;;4967527;28;20140;-38
2023/06/29 09:41:48;;;;;;;20.33;11.93;;;21.10;99.90;;;;;;4953591;28;20046;-37
2023/06/29 09:44:21;;;;;;;20.57;12.83;;;21.10;99.90;;;;;;4966221;28;20671;-38
2023/06/29 09:46:48;;;;;;;19.88;12.00;;;21.10;99.90;;;;;;4969259;28;20054;-37
2023/06/29 09:49:14;;;;;;;19.92;11.95;;;21.10;99.90;;;;;;4936300;28;20416;-37
2023/06/29 09:51:40;;;;;;;20.95;11.13;;;21.10;99.90;;;;;;4965723;28;20047;-37
2023/06/29 09:54:13;;;;;;;21.90;11.95;;;21.20;99.90;;;;;;4969535;28;20078;-38
2023/06/29 09:56:40;;;;;;;21.27;12.57;;;21.30;99.90;;;;;;4975832;28;20497;-38
2023/06/29 09:59:10;;;;;;;20.95;11.75;;;21.40;99.90;;;;;;4970470;28;20062;-38
2023/06/29 10:01:40;;;;;;;19.17;10.48;;;21.40;99.90;;;;;;4967099;28;20404;-38
2023/06/29 10:04:06;;;;;;;23.38;12.43;;;21.50;99.90;;;;;;4970214;28;20093;-38
2023/06/29 10:06:42;;;;;;;25.08;13.57;;;21.60;99.90;;;;;;4955462;28;20544;-37
2023/06/29 10:09:09;;;;;;;21.70;12.27;;;21.70;99.90;;;;;;4973830;28;20120;-37
2023/06/29 10:11:36;;;;;;;19.00;13.07;;;21.70;99.90;;;;;;4969518;28;20057;-38
2023/06/29 10:14:07;;;;;;;21.50;13.27;;;21.80;99.90;;;;;;4970748;28;20047;-38
2023/06/29 10:16:39;;;;;;;21.65;12.90;;;21.80;99.90;;;;;;4952088;28;20051;-38
2023/06/29 10:19:11;;;;;;;;;;;21.90;99.90;;;;;;4968641;28;20136;-40
2023/06/29 10:21:36;;;;;;;21.50;13.32;;;21.90;99.90;;;;;;4960755;28;20467;-38
2023/06/29 10:24:03;;;;;;;20.15;13.35;;;21.90;99.90;;;;;;4968090;28;20130;-38
2023/06/29 10:26:29;;;;;;;20.00;13.90;;;21.90;99.90;;;;;;4968138;28;20050;-38
2023/06/29 10:28:55;;;;;;;19.13;12.68;;;21.90;99.90;;;;;;4969594;28;20543;-38
2023/06/29 10:31:32;;;;;;;18.80;12.10;;;21.90;99.90;;;;;;4969266;28;20595;-38
2023/06/29 10:33:58;;;;;;;22.63;14.38;;;22.00;99.90;;;;;;4964382;28;20055;-39
2023/06/29 10:36:23;;;;;;;22.92;14.27;;;22.00;99.90;;;;;;4969840;28;20066;-39
2023/06/29 10:38:50;;;;;;;25.00;14.45;;;22.20;99.90;;;;;;4964689;28;20051;-38
2023/06/29 10:41:28;;;;;;;22.58;14.52;;;22.40;99.90;;;;;;4968649;28;20089;-38
2023/06/29 10:44:01;;;;;;;24.08;15.07;;;22.60;99.90;;;;;;4966845;28;20070;-38
2023/06/29 10:46:46;;;;;;;21.42;14.45;;;22.90;99.90;;;;;;4948297;28;20074;-37
2023/06/29 10:49:22;;;;;;;23.73;14.27;;;23.20;99.90;;;;;;4968243;28;20063;-37
2023/06/29 10:52:00;;;;;;;24.08;14.93;;;23.50;99.90;;;;;;4967572;28;20061;-37
2023/06/29 10:54:26;;;;;;;23.98;16.08;;;23.50;99.90;;;;;;4965419;28;20081;-37
2023/06/29 10:57:00;;;;;;;20.83;14.18;;;23.50;99.90;;;;;;4964148;28;20487;-37
2023/06/29 10:59:27;;;;;;;22.95;15.70;;;23.60;99.90;;;;;;4967978;28;20065;-37
2023/06/29 11:01:53;;;;;;;22.33;15.27;;;23.60;99.90;;;;;;4967387;28;20050;-38
2023/06/29 11:04:20;;;;;;;22.13;14.27;;;23.50;99.90;;;;;;4970441;28;20512;-37
2023/06/29 11:06:46;;;;;;;20.15;13.30;;;23.60;99.90;;;;;;4969490;28;20519;-37
2023/06/29 11:09:13;;;;;;;21.17;13.52;;;23.70;99.90;;;;;;4969386;28;20065;-37
2023/06/29 11:11:41;;;;;;;21.80;14.55;;;23.70;99.90;;;;;;4962902;28;20102;-37
2023/06/29 11:14:09;;;;;;;20.30;14.43;;;23.90;99.90;;;;;;4965605;28;20057;-38
2023/06/29 11:16:37;;;;;;;19.73;13.50;;;24.10;99.90;;;;;;4969758;28;20056;-38
2023/06/29 11:19:02;;;;;;;23.33;14.82;;;24.20;99.90;;;;;;4970445;28;20176;-38
2023/06/29 11:21:29;;;;;;;23.23;14.20;;;24.50;99.90;;;;;;4967971;28;20062;-38
2023/06/29 11:23:55;;;;;;;20.05;13.68;;;24.60;99.90;;;;;;4969238;28;20499;-38
2023/06/29 11:26:21;;;;;;;24.02;14.80;;;24.70;99.90;;;;;;4972106;28;20437;-38
2023/06/29 11:28:51;;;;;;;21.77;13.90;;;24.60;99.90;;;;;;4973237;28;20408;-38
2023/06/29 11:31:17;;;;;;;18.58;12.43;;;24.70;99.90;;;;;;4957387;28;20167;-38
2023/06/29 11:33:50;;;;;;;22.50;13.73;;;24.70;99.90;;;;;;4964252;28;20054;-38
2023/06/29 11:36:27;;;;;;;19.20;13.48;;;24.50;99.90;;;;;;4963722;28;20087;-38
2023/06/29 11:39:10;;;;;;;22.70;15.00;;;24.30;99.90;;;;;;4964815;28;20081;-39
2023/06/29 11:41:40;;;;;;;22.17;13.23;;;24.40;99.90;;;;;;4958493;28;20054;-39
2023/06/29 11:44:07;;;;;;;23.38;13.52;;;24.30;99.90;;;;;;4959954;28;20054;-39
2023/06/29 11:46:35;;;;;;;20.92;13.20;;;24.40;99.90;;;;;;4952197;28;20063;-37
2023/06/29 11:49:04;;;;;;;23.38;13.88;;;24.30;99.90;;;;;;4947203;28;20160;-38
2023/06/29 11:51:38;;;;;;;25.55;13.25;;;24.20;99.90;;;;;;4965158;28;20047;-38
2023/06/29 11:54:05;;;;;;;23.75;14.63;;;24.20;99.90;;;;;;4964617;28;20054;-38
2023/06/29 11:56:38;;;;;;;24.02;14.80;;;24.20;99.90;;;;;;4964615;28;20054;-39
2023/06/29 11:59:08;;;;;;;20.00;13.48;;;24.10;99.90;;;;;;4969304;28;20055;-37
2023/06/29 12:01:37;;;;;;;24.88;15.15;;;24.00;99.90;;;;;;4968008;28;20055;-38
2023/06/29 12:04:06;;;;;;;22.10;13.93;;;24.10;99.90;;;;;;4969207;28;20053;-38
2023/06/29 12:06:50;;;;;;;23.23;13.85;;;24.10;99.90;;;;;;4971985;28;20416;-38
2023/06/29 12:09:16;;;;;;;21.85;14.13;;;24.20;99.90;;;;;;4961121;28;20046;-38
2023/06/29 12:11:41;;;;;;;23.70;14.27;;;24.20;99.90;;;;;;4967132;28;20422;-38
2023/06/29 12:14:11;;;;;;;23.58;13.40;;;24.40;99.90;;;;;;4966476;28;20043;-38
2023/06/29 12:16:40;;;;;;;22.83;14.48;;;24.50;99.90;;;;;;4967405;28;20065;-39
2023/06/29 12:19:12;;;;;;;19.92;13.15;;;24.50;99.90;;;;;;4965677;28;20066;-38
2023/06/29 12:21:38;;;;;;;19.83;12.90;;;24.50;99.90;;;;;;4960821;28;20067;-38
2023/06/29 12:24:04;;;;;;;21.10;13.30;;;24.50;99.90;;;;;;4949085;28;20478;-38
2023/06/29 12:26:30;;;;;;;21.58;14.15;;;24.60;99.90;;;;;;4966698;28;20062;-37
2023/06/29 12:28:56;;;;;;;20.70;12.93;;;24.60;99.90;;;;;;4969353;28;20046;-38